sensor_id;sensor_type;location;lat;lon;timestamp;temperature;humidity
2439;DHT22;14509;47.992;7.848;2023-09-19T00:00:22;21.90;71.50
2439;DHT22;14509;47.992;7.848;2023-09-19T00:02:27;21.90;70.80
2439;DHT22;14509;47.992;7.848;2023-09-19T00:04:28;21.90;70.70
2439;DHT22;14509;47.992;7.848;2023-09-19T00:06:33;21.90;70.90
2439;DHT22;14509;47.992;7.848;2023-09-19T00:08:34;22.20;70.90
2439;DHT22;14509;47.992;7.848;2023-09-19T00:10:37;22.10;70.90
2439;DHT22;14509;47.992;7.848;2023-09-19T00:12:42;22.00;70.50
2439;DHT22;14509;47.992;7.848;2023-09-19T00:14:44;22.00;69.50
2439;DHT22;14509;47.992;7.848;2023-09-19T00:16:48;22.10;69.10
2439;DHT22;14509;47.992;7.848;2023-09-19T00:18:50;22.00;69.00
2439;DHT22;14509;47.992;7.848;2023-09-19T00:20:52;22.00;69.40
2439;DHT22;14509;47.992;7.848;2023-09-19T00:22:54;22.00;69.20
2439;DHT22;14509;47.992;7.848;2023-09-19T00:24:56;22.20;69.40
2439;DHT22;14509;47.992;7.848;2023-09-19T00:26:58;22.00;68.70
2439;DHT22;14509;47.992;7.848;2023-09-19T00:29:00;22.00;68.80
2439;DHT22;14509;47.992;7.848;2023-09-19T00:31:08;22.00;68.40
2439;DHT22;14509;47.992;7.848;2023-09-19T00:33:12;22.00;68.50
2439;DHT22;14509;47.992;7.848;2023-09-19T00:35:16;22.00;67.40
2439;DHT22;14509;47.992;7.848;2023-09-19T00:37:19;22.00;67.90
2439;DHT22;14509;47.992;7.848;2023-09-19T00:39:21;21.90;67.10
2439;DHT22;14509;47.992;7.848;2023-09-19T00:41:23;22.00;66.60
2439;DHT22;14509;47.992;7.848;2023-09-19T00:43:26;22.00;66.10
2439;DHT22;14509;47.992;7.848;2023-09-19T00:45:28;22.00;66.40
2439;DHT22;14509;47.992;7.848;2023-09-19T00:47:30;22.10;66.70
2439;DHT22;14509;47.992;7.848;2023-09-19T00:49:34;22.10;66.40
2439;DHT22;14509;47.992;7.848;2023-09-19T00:51:36;22.00;65.00
2439;DHT22;14509;47.992;7.848;2023-09-19T00:53:38;22.00;65.20
2439;DHT22;14509;47.992;7.848;2023-09-19T00:55:40;22.00;64.90
2439;DHT22;14509;47.992;7.848;2023-09-19T00:57:43;22.00;64.70
2439;DHT22;14509;47.992;7.848;2023-09-19T00:59:45;22.30;64.70
2439;DHT22;14509;47.992;7.848;2023-09-19T01:01:50;22.10;63.80
2439;DHT22;14509;47.992;7.848;2023-09-19T01:03:54;22.10;63.30
2439;DHT22;14509;47.992;7.848;2023-09-19T01:05:59;22.10;63.80
2439;DHT22;14509;47.992;7.848;2023-09-19T01:08:01;22.10;61.80
2439;DHT22;14509;47.992;7.848;2023-09-19T01:10:06;22.10;61.20
2439;DHT22;14509;47.992;7.848;2023-09-19T01:12:10;22.10;61.40
2439;DHT22;14509;47.992;7.848;2023-09-19T01:14:20;22.20;60.40
2439;DHT22;14509;47.992;7.848;2023-09-19T01:16:33;22.10;60.40
2439;DHT22;14509;47.992;7.848;2023-09-19T01:18:54;22.20;60.10
2439;DHT22;14509;47.992;7.848;2023-09-19T01:21:05;22.20;59.80
2439;DHT22;14509;47.992;7.848;2023-09-19T01:23:20;22.20;59.10
2439;DHT22;14509;47.992;7.848;2023-09-19T01:28:28;22.30;59.30
2439;DHT22;14509;47.992;7.848;2023-09-19T01:30:35;22.20;58.90
2439;DHT22;14509;47.992;7.848;2023-09-19T01:32:41;22.20;59.00
2439;DHT22;14509;47.992;7.848;2023-09-19T01:34:45;22.30;59.00
2439;DHT22;14509;47.992;7.848;2023-09-19T01:36:49;22.30;58.80
2439;DHT22;14509;47.992;7.848;2023-09-19T01:38:51;22.30;58.40
2439;DHT22;14509;47.992;7.848;2023-09-19T01:41:02;22.40;58.00
2439;DHT22;14509;47.992;7.848;2023-09-19T01:43:09;22.30;58.00
2439;DHT22;14509;47.992;7.848;2023-09-19T01:45:16;22.20;58.30
2439;DHT22;14509;47.992;7.848;2023-09-19T01:47:32;22.20;58.20
2439;DHT22;14509;47.992;7.848;2023-09-19T01:49:40;22.30;58.00
2439;DHT22;14509;47.992;7.848;2023-09-19T01:51:53;22.30;58.10
2439;DHT22;14509;47.992;7.848;2023-09-19T01:54:01;22.30;57.80
2439;DHT22;14509;47.992;7.848;2023-09-19T01:56:08;22.40;57.80
2439;DHT22;14509;47.992;7.848;2023-09-19T01:58:17;22.40;57.60
2439;DHT22;14509;47.992;7.848;2023-09-19T02:00:23;22.40;57.50
2439;DHT22;14509;47.992;7.848;2023-09-19T02:02:29;22.40;57.50
2439;DHT22;14509;47.992;7.848;2023-09-19T02:04:32;22.40;57.30
2439;DHT22;14509;47.992;7.848;2023-09-19T02:06:35;22.40;57.20
2439;DHT22;14509;47.992;7.848;2023-09-19T02:08:37;22.30;57.00
2439;DHT22;14509;47.992;7.848;2023-09-19T02:10:40;22.40;57.40
2439;DHT22;14509;47.992;7.848;2023-09-19T02:12:41;22.40;57.30
2439;DHT22;14509;47.992;7.848;2023-09-19T02:14:42;22.50;57.40
2439;DHT22;14509;47.992;7.848;2023-09-19T02:16:44;22.50;57.50
2439;DHT22;14509;47.992;7.848;2023-09-19T02:18:48;22.50;57.50
2439;DHT22;14509;47.992;7.848;2023-09-19T02:20:50;22.50;58.30
2439;DHT22;14509;47.992;7.848;2023-09-19T02:22:54;22.40;58.70
2439;DHT22;14509;47.992;7.848;2023-09-19T02:24:56;22.20;59.40
2439;DHT22;14509;47.992;7.848;2023-09-19T02:27:01;22.00;60.20
2439;DHT22;14509;47.992;7.848;2023-09-19T02:29:06;21.80;60.90
2439;DHT22;14509;47.992;7.848;2023-09-19T02:31:07;21.60;61.70
2439;DHT22;14509;47.992;7.848;2023-09-19T02:33:09;21.60;62.30
2439;DHT22;14509;47.992;7.848;2023-09-19T02:35:13;21.40;62.30
2439;DHT22;14509;47.992;7.848;2023-09-19T02:37:15;21.40;63.50
2439;DHT22;14509;47.992;7.848;2023-09-19T02:39:16;21.40;62.10
2439;DHT22;14509;47.992;7.848;2023-09-19T02:41:19;21.40;61.90
2439;DHT22;14509;47.992;7.848;2023-09-19T02:43:21;21.50;61.90
2439;DHT22;14509;47.992;7.848;2023-09-19T02:45:22;21.50;61.40
2439;DHT22;14509;47.992;7.848;2023-09-19T02:47:25;21.60;61.20
2439;DHT22;14509;47.992;7.848;2023-09-19T02:49:27;21.60;61.20
2439;DHT22;14509;47.992;7.848;2023-09-19T02:51:31;21.70;61.90
2439;DHT22;14509;47.992;7.848;2023-09-19T02:53:33;21.70;62.80
2439;DHT22;14509;47.992;7.848;2023-09-19T02:55:36;21.50;63.10
2439;DHT22;14509;47.992;7.848;2023-09-19T02:57:39;21.30;63.30
2439;DHT22;14509;47.992;7.848;2023-09-19T02:59:43;21.20;63.70
2439;DHT22;14509;47.992;7.848;2023-09-19T03:01:46;21.10;63.90
2439;DHT22;14509;47.992;7.848;2023-09-19T03:03:49;21.10;64.30
2439;DHT22;14509;47.992;7.848;2023-09-19T03:05:51;21.00;64.60
2439;DHT22;14509;47.992;7.848;2023-09-19T03:07:55;21.00;64.80
2439;DHT22;14509;47.992;7.848;2023-09-19T03:09:57;20.90;64.90
2439;DHT22;14509;47.992;7.848;2023-09-19T03:12:00;20.90;65.00
2439;DHT22;14509;47.992;7.848;2023-09-19T03:14:03;20.90;65.10
2439;DHT22;14509;47.992;7.848;2023-09-19T03:16:05;20.90;64.90
2439;DHT22;14509;47.992;7.848;2023-09-19T03:18:06;20.90;65.20
2439;DHT22;14509;47.992;7.848;2023-09-19T03:20:09;20.90;64.80
2439;DHT22;14509;47.992;7.848;2023-09-19T03:22:13;20.90;64.80
2439;DHT22;14509;47.992;7.848;2023-09-19T03:24:17;20.80;64.80
2439;DHT22;14509;47.992;7.848;2023-09-19T03:26:19;20.80;64.70
2439;DHT22;14509;47.992;7.848;2023-09-19T03:28:20;20.80;64.80
2439;DHT22;14509;47.992;7.848;2023-09-19T03:30:22;20.80;64.50
2439;DHT22;14509;47.992;7.848;2023-09-19T03:32:25;20.90;64.30
2439;DHT22;14509;47.992;7.848;2023-09-19T03:34:26;20.90;64.00
2439;DHT22;14509;47.992;7.848;2023-09-19T03:36:29;21.00;63.60
2439;DHT22;14509;47.992;7.848;2023-09-19T03:38:31;21.10;63.40
2439;DHT22;14509;47.992;7.848;2023-09-19T03:40:35;21.20;63.50
2439;DHT22;14509;47.992;7.848;2023-09-19T03:42:38;21.20;63.10
2439;DHT22;14509;47.992;7.848;2023-09-19T03:44:39;21.20;62.60
2439;DHT22;14509;47.992;7.848;2023-09-19T03:46:41;21.30;62.40
2439;DHT22;14509;47.992;7.848;2023-09-19T03:48:43;21.40;62.60
2439;DHT22;14509;47.992;7.848;2023-09-19T03:50:45;21.30;63.30
2439;DHT22;14509;47.992;7.848;2023-09-19T03:52:46;21.30;62.30
2439;DHT22;14509;47.992;7.848;2023-09-19T03:54:48;21.20;62.50
2439;DHT22;14509;47.992;7.848;2023-09-19T03:56:51;21.40;62.70
2439;DHT22;14509;47.992;7.848;2023-09-19T03:58:53;21.40;62.60
2439;DHT22;14509;47.992;7.848;2023-09-19T04:00:56;22.20;63.10
2439;DHT22;14509;47.992;7.848;2023-09-19T04:02:58;21.50;62.30
2439;DHT22;14509;47.992;7.848;2023-09-19T04:05:01;22.10;62.80
2439;DHT22;14509;47.992;7.848;2023-09-19T04:07:03;21.70;62.50
2439;DHT22;14509;47.992;7.848;2023-09-19T04:09:06;21.60;62.20
2439;DHT22;14509;47.992;7.848;2023-09-19T04:11:08;21.60;62.10
2439;DHT22;14509;47.992;7.848;2023-09-19T04:13:12;21.90;62.30
2439;DHT22;14509;47.992;7.848;2023-09-19T04:15:14;21.90;61.80
2439;DHT22;14509;47.992;7.848;2023-09-19T04:17:16;21.80;61.60
2439;DHT22;14509;47.992;7.848;2023-09-19T04:19:19;21.80;61.30
2439;DHT22;14509;47.992;7.848;2023-09-19T04:21:21;21.80;61.20
2439;DHT22;14509;47.992;7.848;2023-09-19T04:23:23;21.90;60.90
2439;DHT22;14509;47.992;7.848;2023-09-19T04:25:24;21.90;60.70
2439;DHT22;14509;47.992;7.848;2023-09-19T04:27:28;21.90;60.70
2439;DHT22;14509;47.992;7.848;2023-09-19T04:29:31;22.10;60.80
2439;DHT22;14509;47.992;7.848;2023-09-19T04:31:33;22.00;60.50
2439;DHT22;14509;47.992;7.848;2023-09-19T04:33:35;22.40;60.80
2439;DHT22;14509;47.992;7.848;2023-09-19T04:35:37;22.70;61.10
2439;DHT22;14509;47.992;7.848;2023-09-19T04:37:40;22.10;60.10
2439;DHT22;14509;47.992;7.848;2023-09-19T04:39:42;22.00;60.10
2439;DHT22;14509;47.992;7.848;2023-09-19T04:41:44;22.00;60.30
2439;DHT22;14509;47.992;7.848;2023-09-19T04:43:48;21.90;60.30
2439;DHT22;14509;47.992;7.848;2023-09-19T04:45:52;21.90;60.70
2439;DHT22;14509;47.992;7.848;2023-09-19T04:47:56;21.90;60.70
2439;DHT22;14509;47.992;7.848;2023-09-19T04:49:58;21.90;60.30
2439;DHT22;14509;47.992;7.848;2023-09-19T04:52:00;21.90;60.20
2439;DHT22;14509;47.992;7.848;2023-09-19T04:54:02;21.90;60.50
2439;DHT22;14509;47.992;7.848;2023-09-19T04:56:04;21.80;60.40
2439;DHT22;14509;47.992;7.848;2023-09-19T04:58:07;21.70;60.70
2439;DHT22;14509;47.992;7.848;2023-09-19T05:00:10;21.90;61.00
2439;DHT22;14509;47.992;7.848;2023-09-19T05:02:14;21.60;60.70
2439;DHT22;14509;47.992;7.848;2023-09-19T05:04:16;21.90;61.30
2439;DHT22;14509;47.992;7.848;2023-09-19T05:06:18;21.70;61.00
2439;DHT22;14509;47.992;7.848;2023-09-19T05:08:21;21.80;60.90
2439;DHT22;14509;47.992;7.848;2023-09-19T05:10:23;21.70;60.70
2439;DHT22;14509;47.992;7.848;2023-09-19T05:12:26;21.70;60.20
2439;DHT22;14509;47.992;7.848;2023-09-19T05:14:27;21.80;60.20
2439;DHT22;14509;47.992;7.848;2023-09-19T05:16:30;21.80;60.20
2439;DHT22;14509;47.992;7.848;2023-09-19T05:18:34;21.90;60.10
2439;DHT22;14509;47.992;7.848;2023-09-19T05:20:36;21.90;59.90
2439;DHT22;14509;47.992;7.848;2023-09-19T05:22:39;21.90;59.80
2439;DHT22;14509;47.992;7.848;2023-09-19T05:24:41;21.90;59.80
2439;DHT22;14509;47.992;7.848;2023-09-19T05:26:43;22.50;60.00
2439;DHT22;14509;47.992;7.848;2023-09-19T05:28:46;22.10;59.60
2439;DHT22;14509;47.992;7.848;2023-09-19T05:30:48;22.10;59.50
2439;DHT22;14509;47.992;7.848;2023-09-19T05:32:50;22.80;60.10
2439;DHT22;14509;47.992;7.848;2023-09-19T05:34:54;22.20;59.20
2439;DHT22;14509;47.992;7.848;2023-09-19T05:36:57;22.50;59.40
2439;DHT22;14509;47.992;7.848;2023-09-19T05:38:58;22.60;59.40
2439;DHT22;14509;47.992;7.848;2023-09-19T05:41:01;22.30;59.00
2439;DHT22;14509;47.992;7.848;2023-09-19T05:43:03;22.20;58.80
2439;DHT22;14509;47.992;7.848;2023-09-19T05:45:07;22.30;58.90
2439;DHT22;14509;47.992;7.848;2023-09-19T05:47:08;22.20;58.70
2439;DHT22;14509;47.992;7.848;2023-09-19T05:49:10;22.20;58.70
2439;DHT22;14509;47.992;7.848;2023-09-19T05:51:13;22.30;58.90
2439;DHT22;14509;47.992;7.848;2023-09-19T05:53:15;22.30;58.60
2439;DHT22;14509;47.992;7.848;2023-09-19T05:55:19;22.30;58.60
2439;DHT22;14509;47.992;7.848;2023-09-19T05:57:20;22.30;58.40
2439;DHT22;14509;47.992;7.848;2023-09-19T05:59:23;22.30;58.30
2439;DHT22;14509;47.992;7.848;2023-09-19T06:01:24;22.30;58.30
2439;DHT22;14509;47.992;7.848;2023-09-19T06:03:27;22.20;58.00
2439;DHT22;14509;47.992;7.848;2023-09-19T06:05:31;22.40;58.30
2439;DHT22;14509;47.992;7.848;2023-09-19T06:07:34;22.50;58.20
2439;DHT22;14509;47.992;7.848;2023-09-19T06:09:38;22.40;58.10
2439;DHT22;14509;47.992;7.848;2023-09-19T06:11:41;23.10;58.60
2439;DHT22;14509;47.992;7.848;2023-09-19T06:13:43;23.10;58.40
2439;DHT22;14509;47.992;7.848;2023-09-19T06:15:47;22.60;57.80
2439;DHT22;14509;47.992;7.848;2023-09-19T06:17:51;22.80;57.70
2439;DHT22;14509;47.992;7.848;2023-09-19T06:19:55;22.80;57.50
2439;DHT22;14509;47.992;7.848;2023-09-19T06:21:57;22.80;57.40
2439;DHT22;14509;47.992;7.848;2023-09-19T06:24:01;22.80;56.80
2439;DHT22;14509;47.992;7.848;2023-09-19T06:26:03;22.80;56.80
2439;DHT22;14509;47.992;7.848;2023-09-19T06:28:07;22.70;56.70
2439;DHT22;14509;47.992;7.848;2023-09-19T06:30:12;22.70;56.60
2439;DHT22;14509;47.992;7.848;2023-09-19T06:32:14;22.70;56.70
2439;DHT22;14509;47.992;7.848;2023-09-19T06:34:16;22.70;56.70
2439;DHT22;14509;47.992;7.848;2023-09-19T06:36:19;22.80;56.60
2439;DHT22;14509;47.992;7.848;2023-09-19T06:38:21;22.90;56.30
2439;DHT22;14509;47.992;7.848;2023-09-19T06:40:25;22.90;56.20
2439;DHT22;14509;47.992;7.848;2023-09-19T06:42:28;23.00;56.30
2439;DHT22;14509;47.992;7.848;2023-09-19T06:44:30;23.10;56.10
2439;DHT22;14509;47.992;7.848;2023-09-19T06:46:33;23.10;56.00
2439;DHT22;14509;47.992;7.848;2023-09-19T06:48:36;23.20;55.90
2439;DHT22;14509;47.992;7.848;2023-09-19T06:50:38;23.20;55.50
2439;DHT22;14509;47.992;7.848;2023-09-19T06:52:41;23.20;55.40
2439;DHT22;14509;47.992;7.848;2023-09-19T06:54:43;23.30;55.70
2439;DHT22;14509;47.992;7.848;2023-09-19T06:56:47;23.30;55.60
2439;DHT22;14509;47.992;7.848;2023-09-19T06:58:48;23.30;55.30
2439;DHT22;14509;47.992;7.848;2023-09-19T07:00:50;23.40;55.30
2439;DHT22;14509;47.992;7.848;2023-09-19T07:02:56;23.30;55.10
2439;DHT22;14509;47.992;7.848;2023-09-19T07:04:57;23.50;55.10
2439;DHT22;14509;47.992;7.848;2023-09-19T07:06:59;23.60;54.80
2439;DHT22;14509;47.992;7.848;2023-09-19T07:09:01;23.60;54.80
2439;DHT22;14509;47.992;7.848;2023-09-19T07:11:03;23.60;54.50
2439;DHT22;14509;47.992;7.848;2023-09-19T07:13:08;23.70;54.50
2439;DHT22;14509;47.992;7.848;2023-09-19T07:15:11;23.70;54.00
2439;DHT22;14509;47.992;7.848;2023-09-19T07:17:13;24.70;54.90
2439;DHT22;14509;47.992;7.848;2023-09-19T07:19:19;24.30;54.90
2439;DHT22;14509;47.992;7.848;2023-09-19T07:21:21;23.70;54.40
2439;DHT22;14509;47.992;7.848;2023-09-19T07:23:23;23.80;54.10
2439;DHT22;14509;47.992;7.848;2023-09-19T07:25:27;24.20;54.20
2439;DHT22;14509;47.992;7.848;2023-09-19T07:27:29;24.20;54.10
2439;DHT22;14509;47.992;7.848;2023-09-19T07:29:32;23.90;53.60
2439;DHT22;14509;47.992;7.848;2023-09-19T07:31:34;24.90;54.40
2439;DHT22;14509;47.992;7.848;2023-09-19T07:33:36;23.80;53.20
2439;DHT22;14509;47.992;7.848;2023-09-19T07:35:37;23.80;53.40
2439;DHT22;14509;47.992;7.848;2023-09-19T07:37:41;23.80;53.50
2439;DHT22;14509;47.992;7.848;2023-09-19T07:39:43;23.80;53.10
2439;DHT22;14509;47.992;7.848;2023-09-19T07:41:45;23.90;52.50
2439;DHT22;14509;47.992;7.848;2023-09-19T07:43:47;23.90;52.70
2439;DHT22;14509;47.992;7.848;2023-09-19T07:45:50;23.90;52.50
2439;DHT22;14509;47.992;7.848;2023-09-19T07:47:52;24.50;53.00
2439;DHT22;14509;47.992;7.848;2023-09-19T07:49:54;23.80;52.60
2439;DHT22;14509;47.992;7.848;2023-09-19T07:51:56;23.80;52.70
2439;DHT22;14509;47.992;7.848;2023-09-19T07:53:59;23.70;52.20
2439;DHT22;14509;47.992;7.848;2023-09-19T07:56:04;23.60;52.50
2439;DHT22;14509;47.992;7.848;2023-09-19T07:58:06;23.60;52.70
2439;DHT22;14509;47.992;7.848;2023-09-19T08:00:09;23.60;52.80
2439;DHT22;14509;47.992;7.848;2023-09-19T08:02:14;23.70;52.80
2439;DHT22;14509;47.992;7.848;2023-09-19T08:04:17;23.80;52.40
2439;DHT22;14509;47.992;7.848;2023-09-19T08:06:19;23.70;52.30
2439;DHT22;14509;47.992;7.848;2023-09-19T08:08:21;23.80;51.70
2439;DHT22;14509;47.992;7.848;2023-09-19T08:10:23;23.80;51.80
2439;DHT22;14509;47.992;7.848;2023-09-19T08:12:28;23.90;51.80
2439;DHT22;14509;47.992;7.848;2023-09-19T08:14:30;24.00;51.80
2439;DHT22;14509;47.992;7.848;2023-09-19T08:16:32;24.00;51.60
2439;DHT22;14509;47.992;7.848;2023-09-19T08:18:35;24.00;51.00
2439;DHT22;14509;47.992;7.848;2023-09-19T08:20:38;24.00;51.30
2439;DHT22;14509;47.992;7.848;2023-09-19T08:22:40;24.20;51.50
2439;DHT22;14509;47.992;7.848;2023-09-19T08:24:43;24.00;51.40
2439;DHT22;14509;47.992;7.848;2023-09-19T08:26:45;24.00;51.40
2439;DHT22;14509;47.992;7.848;2023-09-19T08:28:47;23.90;51.60
2439;DHT22;14509;47.992;7.848;2023-09-19T08:30:49;24.00;51.90
2439;DHT22;14509;47.992;7.848;2023-09-19T08:32:51;24.10;51.80
2439;DHT22;14509;47.992;7.848;2023-09-19T08:34:54;24.20;51.70
2439;DHT22;14509;47.992;7.848;2023-09-19T08:36:56;24.30;51.20
2439;DHT22;14509;47.992;7.848;2023-09-19T08:38:58;24.40;50.30
2439;DHT22;14509;47.992;7.848;2023-09-19T08:41:01;25.00;50.50
2439;DHT22;14509;47.992;7.848;2023-09-19T08:43:06;24.60;49.80
2439;DHT22;14509;47.992;7.848;2023-09-19T08:45:09;24.60;49.40
2439;DHT22;14509;47.992;7.848;2023-09-19T08:47:15;24.70;49.20
2439;DHT22;14509;47.992;7.848;2023-09-19T08:49:24;24.60;48.80
2439;DHT22;14509;47.992;7.848;2023-09-19T08:51:36;24.80;48.60
2439;DHT22;14509;47.992;7.848;2023-09-19T08:53:42;24.70;48.80
2439;DHT22;14509;47.992;7.848;2023-09-19T08:55:51;24.90;48.50
2439;DHT22;14509;47.992;7.848;2023-09-19T08:58:00;25.00;48.40
2439;DHT22;14509;47.992;7.848;2023-09-19T09:00:02;25.00;47.70
2439;DHT22;14509;47.992;7.848;2023-09-19T09:02:12;25.20;48.00
2439;DHT22;14509;47.992;7.848;2023-09-19T09:04:14;25.30;47.70
2439;DHT22;14509;47.992;7.848;2023-09-19T09:06:16;25.40;47.40
2439;DHT22;14509;47.992;7.848;2023-09-19T09:08:20;25.60;47.50
2439;DHT22;14509;47.992;7.848;2023-09-19T09:10:23;25.70;47.00
2439;DHT22;14509;47.992;7.848;2023-09-19T09:12:25;25.90;46.70
2439;DHT22;14509;47.992;7.848;2023-09-19T09:14:27;26.10;46.40
2439;DHT22;14509;47.992;7.848;2023-09-19T09:16:30;26.30;45.70
2439;DHT22;14509;47.992;7.848;2023-09-19T09:18:32;26.50;45.40
2439;DHT22;14509;47.992;7.848;2023-09-19T09:20:34;26.60;45.60
2439;DHT22;14509;47.992;7.848;2023-09-19T09:22:36;26.60;45.20
2439;DHT22;14509;47.992;7.848;2023-09-19T09:24:52;26.70;45.40
2439;DHT22;14509;47.992;7.848;2023-09-19T09:26:56;26.80;45.00
2439;DHT22;14509;47.992;7.848;2023-09-19T09:28:58;27.00;44.40
2439;DHT22;14509;47.992;7.848;2023-09-19T09:31:01;27.00;44.40
2439;DHT22;14509;47.992;7.848;2023-09-19T09:33:10;27.20;44.40
2439;DHT22;14509;47.992;7.848;2023-09-19T09:35:11;27.30;42.90
2439;DHT22;14509;47.992;7.848;2023-09-19T09:37:16;27.40;43.30
2439;DHT22;14509;47.992;7.848;2023-09-19T09:39:30;27.30;43.30
2439;DHT22;14509;47.992;7.848;2023-09-19T09:41:37;27.30;43.60
2439;DHT22;14509;47.992;7.848;2023-09-19T09:43:40;27.30;42.90
2439;DHT22;14509;47.992;7.848;2023-09-19T09:45:45;27.40;41.90
2439;DHT22;14509;47.992;7.848;2023-09-19T09:47:49;27.30;42.30
2439;DHT22;14509;47.992;7.848;2023-09-19T09:49:57;27.30;42.60
2439;DHT22;14509;47.992;7.848;2023-09-19T09:52:07;27.40;42.80
2439;DHT22;14509;47.992;7.848;2023-09-19T09:54:18;27.50;42.40
2439;DHT22;14509;47.992;7.848;2023-09-19T09:56:20;27.50;42.00
2439;DHT22;14509;47.992;7.848;2023-09-19T09:58:25;27.50;41.70
2439;DHT22;14509;47.992;7.848;2023-09-19T10:00:29;27.60;41.60
2439;DHT22;14509;47.992;7.848;2023-09-19T10:02:42;27.50;41.50
2439;DHT22;14509;47.992;7.848;2023-09-19T10:04:47;27.60;41.80
2439;DHT22;14509;47.992;7.848;2023-09-19T10:06:52;27.30;41.50
2439;DHT22;14509;47.992;7.848;2023-09-19T10:08:58;27.20;41.80
2439;DHT22;14509;47.992;7.848;2023-09-19T10:11:15;27.30;41.70
2439;DHT22;14509;47.992;7.848;2023-09-19T10:13:20;27.40;41.20
2439;DHT22;14509;47.992;7.848;2023-09-19T10:15:26;27.50;41.50
2439;DHT22;14509;47.992;7.848;2023-09-19T10:17:34;27.40;41.60
2439;DHT22;14509;47.992;7.848;2023-09-19T10:19:37;27.40;41.60
2439;DHT22;14509;47.992;7.848;2023-09-19T10:21:47;27.40;41.50
2439;DHT22;14509;47.992;7.848;2023-09-19T10:23:51;28.00;42.00
2439;DHT22;14509;47.992;7.848;2023-09-19T10:25:57;27.70;41.50
2439;DHT22;14509;47.992;7.848;2023-09-19T10:28:02;27.70;41.00
2439;DHT22;14509;47.992;7.848;2023-09-19T10:30:11;27.70;41.90
2439;DHT22;14509;47.992;7.848;2023-09-19T10:32:15;27.50;41.00
2439;DHT22;14509;47.992;7.848;2023-09-19T10:34:20;28.00;40.70
2439;DHT22;14509;47.992;7.848;2023-09-19T10:36:24;28.20;40.20
2439;DHT22;14509;47.992;7.848;2023-09-19T10:38:28;28.30;40.30
2439;DHT22;14509;47.992;7.848;2023-09-19T10:40:30;28.50;39.80
2439;DHT22;14509;47.992;7.848;2023-09-19T10:42:38;28.70;39.90
2439;DHT22;14509;47.992;7.848;2023-09-19T10:44:43;28.70;38.80
2439;DHT22;14509;47.992;7.848;2023-09-19T10:46:46;28.70;38.70
2439;DHT22;14509;47.992;7.848;2023-09-19T10:48:50;28.70;39.00
2439;DHT22;14509;47.992;7.848;2023-09-19T10:51:01;28.70;39.20
2439;DHT22;14509;47.992;7.848;2023-09-19T10:53:07;28.60;39.20
2439;DHT22;14509;47.992;7.848;2023-09-19T10:55:15;28.70;39.70
2439;DHT22;14509;47.992;7.848;2023-09-19T10:57:20;28.80;38.70
2439;DHT22;14509;47.992;7.848;2023-09-19T10:59:24;28.80;38.80
2439;DHT22;14509;47.992;7.848;2023-09-19T11:01:42;28.70;38.70
2439;DHT22;14509;47.992;7.848;2023-09-19T11:03:47;28.60;38.50
2439;DHT22;14509;47.992;7.848;2023-09-19T11:06:06;28.50;39.00
2439;DHT22;14509;47.992;7.848;2023-09-19T11:08:10;28.50;38.80
2439;DHT22;14509;47.992;7.848;2023-09-19T11:10:44;28.40;39.30
2439;DHT22;14509;47.992;7.848;2023-09-19T11:12:49;28.20;38.40
2439;DHT22;14509;47.992;7.848;2023-09-19T11:14:50;28.10;38.70
2439;DHT22;14509;47.992;7.848;2023-09-19T11:20:22;28.20;39.10
2439;DHT22;14509;47.992;7.848;2023-09-19T11:25:50;28.40;38.80
2439;DHT22;14509;47.992;7.848;2023-09-19T11:28:31;28.50;39.00
2439;DHT22;14509;47.992;7.848;2023-09-19T11:30:35;28.50;39.30
2439;DHT22;14509;47.992;7.848;2023-09-19T11:33:16;28.80;38.80
2439;DHT22;14509;47.992;7.848;2023-09-19T11:35:21;29.00;36.90
2439;DHT22;14509;47.992;7.848;2023-09-19T11:40:11;29.30;34.80
2439;DHT22;14509;47.992;7.848;2023-09-19T11:42:42;29.40;34.10
2439;DHT22;14509;47.992;7.848;2023-09-19T11:44:44;29.50;33.60
2439;DHT22;14509;47.992;7.848;2023-09-19T11:46:53;29.60;33.00
2439;DHT22;14509;47.992;7.848;2023-09-19T11:49:05;29.70;33.50
2439;DHT22;14509;47.992;7.848;2023-09-19T11:51:22;29.80;33.20
2439;DHT22;14509;47.992;7.848;2023-09-19T11:53:31;29.90;33.10
2439;DHT22;14509;47.992;7.848;2023-09-19T11:55:33;30.10;33.80
2439;DHT22;14509;47.992;7.848;2023-09-19T11:57:35;30.10;34.00
2439;DHT22;14509;47.992;7.848;2023-09-19T11:59:39;30.30;33.80
2439;DHT22;14509;47.992;7.848;2023-09-19T12:01:50;30.40;32.90
2439;DHT22;14509;47.992;7.848;2023-09-19T12:03:56;30.40;32.10
2439;DHT22;14509;47.992;7.848;2023-09-19T12:05:59;30.40;32.10
2439;DHT22;14509;47.992;7.848;2023-09-19T12:08:00;30.30;31.40
2439;DHT22;14509;47.992;7.848;2023-09-19T12:10:04;30.30;31.90
2439;DHT22;14509;47.992;7.848;2023-09-19T12:12:06;30.20;31.00
2439;DHT22;14509;47.992;7.848;2023-09-19T12:14:08;30.20;30.50
2439;DHT22;14509;47.992;7.848;2023-09-19T12:16:15;30.10;29.90
2439;DHT22;14509;47.992;7.848;2023-09-19T12:18:26;30.00;30.00
2439;DHT22;14509;47.992;7.848;2023-09-19T12:20:42;29.90;30.70
2439;DHT22;14509;47.992;7.848;2023-09-19T12:22:47;29.90;31.00
2439;DHT22;14509;47.992;7.848;2023-09-19T12:24:50;29.70;31.10
2439;DHT22;14509;47.992;7.848;2023-09-19T12:26:59;29.70;30.70
2439;DHT22;14509;47.992;7.848;2023-09-19T12:29:02;29.70;30.70
2439;DHT22;14509;47.992;7.848;2023-09-19T12:31:06;29.60;30.30
2439;DHT22;14509;47.992;7.848;2023-09-19T12:33:16;29.50;30.60
2439;DHT22;14509;47.992;7.848;2023-09-19T12:35:27;29.50;30.90
2439;DHT22;14509;47.992;7.848;2023-09-19T12:37:31;29.50;30.80
2439;DHT22;14509;47.992;7.848;2023-09-19T12:39:37;29.30;30.50
2439;DHT22;14509;47.992;7.848;2023-09-19T12:41:38;29.10;31.10
2439;DHT22;14509;47.992;7.848;2023-09-19T12:43:40;29.00;31.60
2439;DHT22;14509;47.992;7.848;2023-09-19T12:45:42;29.00;32.20
2439;DHT22;14509;47.992;7.848;2023-09-19T12:48:20;29.00;32.60
2439;DHT22;14509;47.992;7.848;2023-09-19T12:50:23;29.00;31.60
2439;DHT22;14509;47.992;7.848;2023-09-19T12:52:35;29.00;31.00
2439;DHT22;14509;47.992;7.848;2023-09-19T12:54:39;29.00;31.20
2439;DHT22;14509;47.992;7.848;2023-09-19T12:56:43;28.90;32.00
2439;DHT22;14509;47.992;7.848;2023-09-19T12:58:50;28.90;33.30
2439;DHT22;14509;47.992;7.848;2023-09-19T13:00:51;28.80;32.90
2439;DHT22;14509;47.992;7.848;2023-09-19T13:03:12;29.00;32.80
2439;DHT22;14509;47.992;7.848;2023-09-19T13:05:17;28.80;32.50
2439;DHT22;14509;47.992;7.848;2023-09-19T13:07:40;28.80;33.10
2439;DHT22;14509;47.992;7.848;2023-09-19T13:10:04;28.90;33.90
2439;DHT22;14509;47.992;7.848;2023-09-19T13:12:34;29.00;33.80
2439;DHT22;14509;47.992;7.848;2023-09-19T13:14:37;29.10;33.20
2439;DHT22;14509;47.992;7.848;2023-09-19T13:16:53;29.20;33.10
2439;DHT22;14509;47.992;7.848;2023-09-19T13:18:55;29.40;33.60
2439;DHT22;14509;47.992;7.848;2023-09-19T13:21:09;29.50;33.50
2439;DHT22;14509;47.992;7.848;2023-09-19T13:23:26;29.70;33.00
2439;DHT22;14509;47.992;7.848;2023-09-19T13:25:28;29.80;32.20
2439;DHT22;14509;47.992;7.848;2023-09-19T13:27:32;29.80;32.00
2439;DHT22;14509;47.992;7.848;2023-09-19T13:29:33;29.90;32.30
2439;DHT22;14509;47.992;7.848;2023-09-19T13:31:35;29.80;32.00